sensor_id;sensor_type;location;lat;lon;timestamp;P1;durP1;ratioP1;P2;durP2;ratioP2
77061;SDS011;65989;51.686;5.138;2023-11-19T00:01:43;20.87;;;11.33;;
77061;SDS011;65989;51.686;5.138;2023-11-19T00:04:08;21.47;;;10.33;;
77061;SDS011;65989;51.686;5.138;2023-11-19T00:06:33;24.98;;;10.77;;
77061;SDS011;65989;51.686;5.138;2023-11-19T00:08:59;33.53;;;11.13;;
77061;SDS011;65989;51.686;5.138;2023-11-19T00:11:25;28.07;;;9.73;;
77061;SDS011;65989;51.686;5.138;2023-11-19T00:13:50;33.65;;;10.25;;
77061;SDS011;65989;51.686;5.138;2023-11-19T00:16:15;27.43;;;9.17;;
77061;SDS011;65989;51.686;5.138;2023-11-19T00:18:41;25.83;;;9.60;;
77061;SDS011;65989;51.686;5.138;2023-11-19T00:21:07;28.07;;;9.73;;
77061;SDS011;65989;51.686;5.138;2023-11-19T00:23:33;25.60;;;9.23;;
77061;SDS011;65989;51.686;5.138;2023-11-19T00:25:58;32.33;;;9.23;;
77061;SDS011;65989;51.686;5.138;2023-11-19T00:28:23;24.87;;;8.13;;
77061;SDS011;65989;51.686;5.138;2023-11-19T00:30:49;26.45;;;8.40;;
77061;SDS011;65989;51.686;5.138;2023-11-19T00:33:14;27.67;;;7.30;;
77061;SDS011;65989;51.686;5.138;2023-11-19T00:35:39;29.13;;;7.83;;
77061;SDS011;65989;51.686;5.138;2023-11-19T00:38:04;29.90;;;7.77;;
77061;SDS011;65989;51.686;5.138;2023-11-19T00:40:30;22.07;;;6.70;;
77061;SDS011;65989;51.686;5.138;2023-11-19T00:42:55;23.13;;;6.70;;
77061;SDS011;65989;51.686;5.138;2023-11-19T00:45:20;27.97;;;7.67;;
77061;SDS011;65989;51.686;5.138;2023-11-19T00:47:46;38.20;;;7.70;;
77061;SDS011;65989;51.686;5.138;2023-11-19T00:50:11;24.60;;;7.20;;
77061;SDS011;65989;51.686;5.138;2023-11-19T00:52:36;34.23;;;7.50;;
77061;SDS011;65989;51.686;5.138;2023-11-19T00:55:02;24.65;;;6.88;;
77061;SDS011;65989;51.686;5.138;2023-11-19T00:57:27;29.97;;;7.73;;
77061;SDS011;65989;51.686;5.138;2023-11-19T00:59:53;21.80;;;6.23;;
77061;SDS011;65989;51.686;5.138;2023-11-19T01:02:18;25.50;;;6.37;;
77061;SDS011;65989;51.686;5.138;2023-11-19T01:04:43;31.90;;;6.50;;
77061;SDS011;65989;51.686;5.138;2023-11-19T01:07:09;26.42;;;5.15;;
77061;SDS011;65989;51.686;5.138;2023-11-19T01:09:37;46.95;;;6.97;;
77061;SDS011;65989;51.686;5.138;2023-11-19T01:12:03;27.07;;;6.30;;
77061;SDS011;65989;51.686;5.138;2023-11-19T01:14:29;26.83;;;5.57;;
77061;SDS011;65989;51.686;5.138;2023-11-19T01:16:54;24.60;;;5.65;;
77061;SDS011;65989;51.686;5.138;2023-11-19T01:19:19;34.43;;;5.00;;
77061;SDS011;65989;51.686;5.138;2023-11-19T01:21:46;42.58;;;5.47;;
77061;SDS011;65989;51.686;5.138;2023-11-19T01:24:11;38.43;;;5.50;;
77061;SDS011;65989;51.686;5.138;2023-11-19T01:26:38;28.27;;;5.27;;
77061;SDS011;65989;51.686;5.138;2023-11-19T01:29:03;40.23;;;6.43;;
77061;SDS011;65989;51.686;5.138;2023-11-19T01:31:29;38.90;;;5.50;;
77061;SDS011;65989;51.686;5.138;2023-11-19T01:33:55;26.97;;;4.60;;
77061;SDS011;65989;51.686;5.138;2023-11-19T01:36:20;41.30;;;6.33;;
77061;SDS011;65989;51.686;5.138;2023-11-19T01:38:45;41.67;;;5.75;;
77061;SDS011;65989;51.686;5.138;2023-11-19T01:41:11;28.90;;;4.83;;
77061;SDS011;65989;51.686;5.138;2023-11-19T01:43:36;49.20;;;5.63;;
77061;SDS011;65989;51.686;5.138;2023-11-19T01:46:02;34.08;;;4.97;;
77061;SDS011;65989;51.686;5.138;2023-11-19T01:48:33;40.60;;;5.18;;
77061;SDS011;65989;51.686;5.138;2023-11-19T01:50:59;38.83;;;4.87;;
77061;SDS011;65989;51.686;5.138;2023-11-19T01:53:25;34.72;;;4.88;;
77061;SDS011;65989;51.686;5.138;2023-11-19T01:55:50;38.43;;;4.57;;
77061;SDS011;65989;51.686;5.138;2023-11-19T01:58:17;35.22;;;4.97;;
77061;SDS011;65989;51.686;5.138;2023-11-19T02:00:44;45.70;;;4.38;;
77061;SDS011;65989;51.686;5.138;2023-11-19T02:03:09;38.07;;;5.10;;
77061;SDS011;65989;51.686;5.138;2023-11-19T02:05:35;43.30;;;4.90;;
77061;SDS011;65989;51.686;5.138;2023-11-19T02:08:01;43.20;;;5.40;;
77061;SDS011;65989;51.686;5.138;2023-11-19T02:10:26;35.22;;;4.70;;
77061;SDS011;65989;51.686;5.138;2023-11-19T02:12:51;42.67;;;5.67;;
77061;SDS011;65989;51.686;5.138;2023-11-19T02:15:17;45.20;;;4.93;;
77061;SDS011;65989;51.686;5.138;2023-11-19T02:17:44;45.08;;;5.30;;
77061;SDS011;65989;51.686;5.138;2023-11-19T02:20:09;45.40;;;5.13;;
77061;SDS011;65989;51.686;5.138;2023-11-19T02:22:37;42.22;;;5.72;;
77061;SDS011;65989;51.686;5.138;2023-11-19T02:25:06;43.60;;;5.73;;
77061;SDS011;65989;51.686;5.138;2023-11-19T02:30:04;52.17;;;6.10;;
77061;SDS011;65989;51.686;5.138;2023-11-19T02:32:31;43.80;;;4.90;;
77061;SDS011;65989;51.686;5.138;2023-11-19T02:34:56;40.07;;;5.70;;
77061;SDS011;65989;51.686;5.138;2023-11-19T02:37:21;42.80;;;5.60;;
77061;SDS011;65989;51.686;5.138;2023-11-19T02:39:46;43.83;;;5.20;;
77061;SDS011;65989;51.686;5.138;2023-11-19T02:42:12;41.80;;;5.40;;
77061;SDS011;65989;51.686;5.138;2023-11-19T02:44:38;50.08;;;5.55;;
77061;SDS011;65989;51.686;5.138;2023-11-19T02:47:05;42.88;;;5.22;;
77061;SDS011;65989;51.686;5.138;2023-11-19T02:49:33;46.25;;;5.28;;
77061;SDS011;65989;51.686;5.138;2023-11-19T02:51:58;52.50;;;5.53;;
77061;SDS011;65989;51.686;5.138;2023-11-19T02:54:24;46.67;;;5.53;;
77061;SDS011;65989;51.686;5.138;2023-11-19T02:56:52;46.63;;;5.23;;
77061;SDS011;65989;51.686;5.138;2023-11-19T02:59:20;36.78;;;5.00;;
77061;SDS011;65989;51.686;5.138;2023-11-19T03:01:52;35.78;;;4.90;;
77061;SDS011;65989;51.686;5.138;2023-11-19T03:04:18;44.60;;;5.35;;
77061;SDS011;65989;51.686;5.138;2023-11-19T03:06:45;44.92;;;4.95;;
77061;SDS011;65989;51.686;5.138;2023-11-19T03:09:10;41.07;;;5.03;;
77061;SDS011;65989;51.686;5.138;2023-11-19T03:11:36;41.23;;;4.70;;
77061;SDS011;65989;51.686;5.138;2023-11-19T03:14:01;47.27;;;4.93;;
77061;SDS011;65989;51.686;5.138;2023-11-19T03:16:28;43.63;;;4.90;;
77061;SDS011;65989;51.686;5.138;2023-11-19T03:18:53;55.37;;;5.57;;
77061;SDS011;65989;51.686;5.138;2023-11-19T03:21:18;50.03;;;5.30;;
77061;SDS011;65989;51.686;5.138;2023-11-19T03:23:43;33.37;;;4.77;;
77061;SDS011;65989;51.686;5.138;2023-11-19T03:26:10;39.97;;;4.77;;
77061;SDS011;65989;51.686;5.138;2023-11-19T03:28:35;55.63;;;4.97;;
77061;SDS011;65989;51.686;5.138;2023-11-19T03:31:00;47.80;;;4.83;;
77061;SDS011;65989;51.686;5.138;2023-11-19T03:33:26;46.10;;;5.13;;
77061;SDS011;65989;51.686;5.138;2023-11-19T03:35:52;50.70;;;5.78;;
77061;SDS011;65989;51.686;5.138;2023-11-19T03:38:18;48.40;;;4.90;;
77061;SDS011;65989;51.686;5.138;2023-11-19T03:40:43;43.33;;;4.80;;
77061;SDS011;65989;51.686;5.138;2023-11-19T03:43:08;59.03;;;5.93;;
77061;SDS011;65989;51.686;5.138;2023-11-19T03:45:34;50.58;;;5.60;;
77061;SDS011;65989;51.686;5.138;2023-11-19T03:48:01;60.53;;;5.65;;
77061;SDS011;65989;51.686;5.138;2023-11-19T03:50:26;58.97;;;5.60;;
77061;SDS011;65989;51.686;5.138;2023-11-19T03:52:51;50.03;;;5.07;;
77061;SDS011;65989;51.686;5.138;2023-11-19T03:55:17;38.15;;;4.82;;
77061;SDS011;65989;51.686;5.138;2023-11-19T03:57:43;42.47;;;4.93;;
77061;SDS011;65989;51.686;5.138;2023-11-19T04:00:08;46.77;;;5.60;;
77061;SDS011;65989;51.686;5.138;2023-11-19T04:02:39;59.40;;;5.60;;
77061;SDS011;65989;51.686;5.138;2023-11-19T04:05:04;60.57;;;6.93;;
77061;SDS011;65989;51.686;5.138;2023-11-19T04:07:30;47.70;;;6.07;;
77061;SDS011;65989;51.686;5.138;2023-11-19T04:09:55;60.37;;;4.80;;
77061;SDS011;65989;51.686;5.138;2023-11-19T04:12:20;48.87;;;6.23;;
77061;SDS011;65989;51.686;5.138;2023-11-19T04:14:47;59.03;;;6.20;;
77061;SDS011;65989;51.686;5.138;2023-11-19T04:17:12;58.27;;;5.90;;
77061;SDS011;65989;51.686;5.138;2023-11-19T04:19:37;43.37;;;5.10;;
77061;SDS011;65989;51.686;5.138;2023-11-19T04:22:09;53.60;;;5.60;;
77061;SDS011;65989;51.686;5.138;2023-11-19T04:24:34;51.47;;;5.60;;
77061;SDS011;65989;51.686;5.138;2023-11-19T04:27:00;51.70;;;6.43;;
77061;SDS011;65989;51.686;5.138;2023-11-19T04:29:25;57.23;;;6.13;;
77061;SDS011;65989;51.686;5.138;2023-11-19T04:31:50;54.40;;;5.33;;
77061;SDS011;65989;51.686;5.138;2023-11-19T04:34:15;51.50;;;6.27;;
77061;SDS011;65989;51.686;5.138;2023-11-19T04:36:41;60.27;;;6.13;;
77061;SDS011;65989;51.686;5.138;2023-11-19T04:39:06;61.43;;;7.07;;
77061;SDS011;65989;51.686;5.138;2023-11-19T04:41:51;67.07;;;6.45;;
77061;SDS011;65989;51.686;5.138;2023-11-19T04:44:19;55.63;;;5.25;;
77061;SDS011;65989;51.686;5.138;2023-11-19T04:46:44;60.23;;;5.43;;
77061;SDS011;65989;51.686;5.138;2023-11-19T04:49:10;51.58;;;5.57;;
77061;SDS011;65989;51.686;5.138;2023-11-19T04:51:39;55.83;;;5.83;;
77061;SDS011;65989;51.686;5.138;2023-11-19T04:54:05;50.22;;;5.18;;
77061;SDS011;65989;51.686;5.138;2023-11-19T04:56:31;51.55;;;5.28;;
77061;SDS011;65989;51.686;5.138;2023-11-19T04:58:57;54.80;;;5.27;;
77061;SDS011;65989;51.686;5.138;2023-11-19T05:01:22;60.70;;;5.70;;
77061;SDS011;65989;51.686;5.138;2023-11-19T05:03:47;48.00;;;5.00;;
77061;SDS011;65989;51.686;5.138;2023-11-19T05:06:12;51.20;;;5.60;;
77061;SDS011;65989;51.686;5.138;2023-11-19T05:08:38;47.67;;;5.37;;
77061;SDS011;65989;51.686;5.138;2023-11-19T05:11:03;49.80;;;5.27;;
77061;SDS011;65989;51.686;5.138;2023-11-19T05:13:28;49.80;;;5.20;;
77061;SDS011;65989;51.686;5.138;2023-11-19T05:15:54;54.80;;;5.73;;
77061;SDS011;65989;51.686;5.138;2023-11-19T05:18:19;50.03;;;5.13;;
77061;SDS011;65989;51.686;5.138;2023-11-19T05:20:45;56.57;;;6.43;;
77061;SDS011;65989;51.686;5.138;2023-11-19T05:23:10;50.00;;;5.93;;
77061;SDS011;65989;51.686;5.138;2023-11-19T05:25:36;51.43;;;5.90;;
77061;SDS011;65989;51.686;5.138;2023-11-19T05:28:01;48.88;;;5.28;;
77061;SDS011;65989;51.686;5.138;2023-11-19T05:30:27;44.67;;;6.33;;
77061;SDS011;65989;51.686;5.138;2023-11-19T05:32:52;50.50;;;6.53;;
77061;SDS011;65989;51.686;5.138;2023-11-19T05:35:17;52.70;;;5.97;;
77061;SDS011;65989;51.686;5.138;2023-11-19T05:37:42;53.87;;;5.10;;
77061;SDS011;65989;51.686;5.138;2023-11-19T05:40:08;64.07;;;6.07;;
77061;SDS011;65989;51.686;5.138;2023-11-19T05:42:39;51.42;;;5.95;;
77061;SDS011;65989;51.686;5.138;2023-11-19T05:45:04;55.93;;;5.63;;
77061;SDS011;65989;51.686;5.138;2023-11-19T05:47:30;61.30;;;6.30;;
77061;SDS011;65989;51.686;5.138;2023-11-19T05:49:55;59.70;;;6.20;;
77061;SDS011;65989;51.686;5.138;2023-11-19T05:52:20;61.17;;;5.83;;
77061;SDS011;65989;51.686;5.138;2023-11-19T05:54:47;52.90;;;5.45;;
77061;SDS011;65989;51.686;5.138;2023-11-19T05:57:16;60.28;;;5.82;;
77061;SDS011;65989;51.686;5.138;2023-11-19T05:59:45;58.45;;;7.53;;
77061;SDS011;65989;51.686;5.138;2023-11-19T06:02:10;66.67;;;6.57;;
77061;SDS011;65989;51.686;5.138;2023-11-19T06:04:35;46.30;;;5.37;;
77061;SDS011;65989;51.686;5.138;2023-11-19T06:07:01;53.03;;;5.00;;
77061;SDS011;65989;51.686;5.138;2023-11-19T06:09:26;46.77;;;5.90;;
77061;SDS011;65989;51.686;5.138;2023-11-19T06:11:51;63.00;;;5.70;;
77061;SDS011;65989;51.686;5.138;2023-11-19T06:14:17;58.25;;;7.28;;
77061;SDS011;65989;51.686;5.138;2023-11-19T06:16:42;49.23;;;5.93;;
77061;SDS011;65989;51.686;5.138;2023-11-19T06:19:08;47.63;;;5.35;;
77061;SDS011;65989;51.686;5.138;2023-11-19T06:21:36;55.10;;;6.03;;
77061;SDS011;65989;51.686;5.138;2023-11-19T06:24:02;50.92;;;5.53;;
77061;SDS011;65989;51.686;5.138;2023-11-19T06:26:27;53.23;;;6.07;;
77061;SDS011;65989;51.686;5.138;2023-11-19T06:28:52;54.83;;;5.57;;
77061;SDS011;65989;51.686;5.138;2023-11-19T06:31:18;57.53;;;5.53;;
77061;SDS011;65989;51.686;5.138;2023-11-19T06:33:43;49.83;;;5.03;;
77061;SDS011;65989;51.686;5.138;2023-11-19T06:36:08;59.03;;;6.27;;
77061;SDS011;65989;51.686;5.138;2023-11-19T06:38:34;61.45;;;5.82;;
77061;SDS011;65989;51.686;5.138;2023-11-19T06:40:59;48.47;;;5.97;;
77061;SDS011;65989;51.686;5.138;2023-11-19T06:43:24;56.27;;;6.47;;
77061;SDS011;65989;51.686;5.138;2023-11-19T06:45:50;47.45;;;5.50;;
77061;SDS011;65989;51.686;5.138;2023-11-19T06:48:16;52.70;;;5.63;;
77061;SDS011;65989;51.686;5.138;2023-11-19T06:50:41;59.63;;;6.30;;
77061;SDS011;65989;51.686;5.138;2023-11-19T06:53:06;44.13;;;5.53;;
77061;SDS011;65989;51.686;5.138;2023-11-19T06:55:35;57.33;;;6.03;;
77061;SDS011;65989;51.686;5.138;2023-11-19T06:58:00;62.50;;;6.40;;
77061;SDS011;65989;51.686;5.138;2023-11-19T07:00:27;62.80;;;6.07;;
77061;SDS011;65989;51.686;5.138;2023-11-19T07:02:52;49.47;;;5.30;;
77061;SDS011;65989;51.686;5.138;2023-11-19T07:05:18;45.00;;;4.83;;
77061;SDS011;65989;51.686;5.138;2023-11-19T07:07:44;46.35;;;5.13;;
77061;SDS011;65989;51.686;5.138;2023-11-19T07:10:11;46.43;;;5.23;;
77061;SDS011;65989;51.686;5.138;2023-11-19T07:12:36;49.50;;;4.93;;
77061;SDS011;65989;51.686;5.138;2023-11-19T07:15:01;45.47;;;5.90;;
77061;SDS011;65989;51.686;5.138;2023-11-19T07:17:28;55.35;;;5.47;;
77061;SDS011;65989;51.686;5.138;2023-11-19T07:19:53;55.50;;;6.20;;
77061;SDS011;65989;51.686;5.138;2023-11-19T07:22:19;54.63;;;4.93;;
77061;SDS011;65989;51.686;5.138;2023-11-19T07:24:45;50.45;;;5.72;;
77061;SDS011;65989;51.686;5.138;2023-11-19T07:27:10;55.13;;;6.23;;
77061;SDS011;65989;51.686;5.138;2023-11-19T07:29:35;49.27;;;5.30;;
77061;SDS011;65989;51.686;5.138;2023-11-19T07:32:01;49.47;;;5.70;;
77061;SDS011;65989;51.686;5.138;2023-11-19T07:34:27;57.25;;;6.30;;
77061;SDS011;65989;51.686;5.138;2023-11-19T07:36:52;46.83;;;5.47;;
77061;SDS011;65989;51.686;5.138;2023-11-19T07:39:18;64.03;;;5.40;;
77061;SDS011;65989;51.686;5.138;2023-11-19T07:41:43;45.63;;;4.57;;
77061;SDS011;65989;51.686;5.138;2023-11-19T07:44:08;53.77;;;5.57;;
77061;SDS011;65989;51.686;5.138;2023-11-19T07:46:33;53.03;;;5.60;;
77061;SDS011;65989;51.686;5.138;2023-11-19T07:48:58;47.27;;;5.30;;
77061;SDS011;65989;51.686;5.138;2023-11-19T07:51:24;47.67;;;5.20;;
77061;SDS011;65989;51.686;5.138;2023-11-19T07:53:49;57.03;;;6.53;;
77061;SDS011;65989;51.686;5.138;2023-11-19T07:56:14;44.53;;;5.43;;
77061;SDS011;65989;51.686;5.138;2023-11-19T07:58:40;41.42;;;6.28;;
77061;SDS011;65989;51.686;5.138;2023-11-19T08:01:05;45.73;;;5.70;;
77061;SDS011;65989;51.686;5.138;2023-11-19T08:03:31;59.80;;;6.55;;
77061;SDS011;65989;51.686;5.138;2023-11-19T08:05:59;53.27;;;5.97;;
77061;SDS011;65989;51.686;5.138;2023-11-19T08:08:24;43.67;;;5.00;;
77061;SDS011;65989;51.686;5.138;2023-11-19T08:10:49;37.70;;;4.97;;
77061;SDS011;65989;51.686;5.138;2023-11-19T08:13:16;53.88;;;5.85;;
77061;SDS011;65989;51.686;5.138;2023-11-19T08:15:41;45.93;;;5.03;;
77061;SDS011;65989;51.686;5.138;2023-11-19T08:18:07;45.35;;;5.00;;
77061;SDS011;65989;51.686;5.138;2023-11-19T08:20:34;47.38;;;5.65;;
77061;SDS011;65989;51.686;5.138;2023-11-19T08:22:59;48.00;;;5.57;;
77061;SDS011;65989;51.686;5.138;2023-11-19T08:25:24;41.40;;;5.00;;
77061;SDS011;65989;51.686;5.138;2023-11-19T08:27:49;39.83;;;4.57;;
77061;SDS011;65989;51.686;5.138;2023-11-19T08:30:15;41.00;;;4.77;;
77061;SDS011;65989;51.686;5.138;2023-11-19T08:32:40;43.87;;;4.87;;
77061;SDS011;65989;51.686;5.138;2023-11-19T08:35:05;54.40;;;5.80;;
77061;SDS011;65989;51.686;5.138;2023-11-19T08:37:31;40.23;;;4.93;;
77061;SDS011;65989;51.686;5.138;2023-11-19T08:39:56;41.07;;;4.83;;
77061;SDS011;65989;51.686;5.138;2023-11-19T08:42:21;51.10;;;5.93;;
77061;SDS011;65989;51.686;5.138;2023-11-19T08:44:49;39.50;;;5.67;;
77061;SDS011;65989;51.686;5.138;2023-11-19T08:47:16;52.85;;;5.85;;
77061;SDS011;65989;51.686;5.138;2023-11-19T08:49:44;50.45;;;5.18;;
77061;SDS011;65989;51.686;5.138;2023-11-19T08:52:10;39.23;;;5.23;;
77061;SDS011;65989;51.686;5.138;2023-11-19T08:54:36;46.70;;;5.77;;
77061;SDS011;65989;51.686;5.138;2023-11-19T08:57:01;42.92;;;5.22;;
77061;SDS011;65989;51.686;5.138;2023-11-19T08:59:28;52.92;;;5.22;;
77061;SDS011;65989;51.686;5.138;2023-11-19T09:01:53;42.00;;;4.97;;
77061;SDS011;65989;51.686;5.138;2023-11-19T09:04:18;49.03;;;6.20;;
77061;SDS011;65989;51.686;5.138;2023-11-19T09:06:47;47.97;;;5.25;;
77061;SDS011;65989;51.686;5.138;2023-11-19T09:09:12;52.30;;;5.83;;
77061;SDS011;65989;51.686;5.138;2023-11-19T09:11:37;50.90;;;5.30;;
77061;SDS011;65989;51.686;5.138;2023-11-19T09:14:03;59.87;;;5.93;;
77061;SDS011;65989;51.686;5.138;2023-11-19T09:16:29;50.53;;;5.65;;
77061;SDS011;65989;51.686;5.138;2023-11-19T09:18:54;43.17;;;5.60;;
77061;SDS011;65989;51.686;5.138;2023-11-19T09:21:20;32.43;;;4.10;;
77061;SDS011;65989;51.686;5.138;2023-11-19T09:23:45;36.27;;;5.00;;
77061;SDS011;65989;51.686;5.138;2023-11-19T09:26:13;49.38;;;5.15;;
77061;SDS011;65989;51.686;5.138;2023-11-19T09:28:38;43.63;;;5.28;;
77061;SDS011;65989;51.686;5.138;2023-11-19T09:31:12;39.97;;;4.40;;
77061;SDS011;65989;51.686;5.138;2023-11-19T09:33:37;46.92;;;5.75;;
77061;SDS011;65989;51.686;5.138;2023-11-19T09:36:03;36.53;;;4.90;;
77061;SDS011;65989;51.686;5.138;2023-11-19T09:38:28;43.70;;;4.73;;
77061;SDS011;65989;51.686;5.138;2023-11-19T09:40:53;48.90;;;5.70;;
77061;SDS011;65989;51.686;5.138;2023-11-19T09:43:19;41.47;;;4.80;;
77061;SDS011;65989;51.686;5.138;2023-11-19T09:45:50;41.80;;;4.67;;
77061;SDS011;65989;51.686;5.138;2023-11-19T09:48:19;36.63;;;5.37;;
77061;SDS011;65989;51.686;5.138;2023-11-19T09:50:45;49.40;;;5.30;;
77061;SDS011;65989;51.686;5.138;2023-11-19T09:53:11;44.10;;;6.05;;
77061;SDS011;65989;51.686;5.138;2023-11-19T09:55:36;37.70;;;5.60;;
77061;SDS011;65989;51.686;5.138;2023-11-19T09:58:02;41.73;;;5.17;;
77061;SDS011;65989;51.686;5.138;2023-11-19T10:00:27;52.77;;;6.23;;
77061;SDS011;65989;51.686;5.138;2023-11-19T10:02:52;29.70;;;4.53;;
77061;SDS011;65989;51.686;5.138;2023-11-19T10:05:18;37.53;;;4.10;;
77061;SDS011;65989;51.686;5.138;2023-11-19T10:07:45;38.70;;;5.57;;
77061;SDS011;65989;51.686;5.138;2023-11-19T10:10:10;49.80;;;5.30;;
77061;SDS011;65989;51.686;5.138;2023-11-19T10:12:40;30.15;;;4.07;;
77061;SDS011;65989;51.686;5.138;2023-11-19T10:15:05;39.50;;;4.80;;
77061;SDS011;65989;51.686;5.138;2023-11-19T10:17:33;37.60;;;5.80;;
77061;SDS011;65989;51.686;5.138;2023-11-19T10:19:58;39.90;;;4.37;;
77061;SDS011;65989;51.686;5.138;2023-11-19T10:22:24;34.83;;;4.00;;
77061;SDS011;65989;51.686;5.138;2023-11-19T10:24:50;40.95;;;5.65;;
77061;SDS011;65989;51.686;5.138;2023-11-19T10:27:15;37.20;;;4.73;;
77061;SDS011;65989;51.686;5.138;2023-11-19T10:29:42;33.10;;;4.93;;
77061;SDS011;65989;51.686;5.138;2023-11-19T10:32:09;46.10;;;5.55;;
77061;SDS011;65989;51.686;5.138;2023-11-19T10:34:43;44.90;;;5.07;;
77061;SDS011;65989;51.686;5.138;2023-11-19T10:37:27;39.77;;;5.80;;
77061;SDS011;65989;51.686;5.138;2023-11-19T10:39:57;36.92;;;4.90;;
77061;SDS011;65989;51.686;5.138;2023-11-19T10:42:23;36.63;;;5.03;;
77061;SDS011;65989;51.686;5.138;2023-11-19T10:44:51;36.33;;;4.35;;
77061;SDS011;65989;51.686;5.138;2023-11-19T10:47:18;40.17;;;5.33;;
77061;SDS011;65989;51.686;5.138;2023-11-19T10:49:44;47.25;;;5.47;;
77061;SDS011;65989;51.686;5.138;2023-11-19T10:52:11;30.50;;;4.50;;
77061;SDS011;65989;51.686;5.138;2023-11-19T10:54:36;26.67;;;4.47;;
77061;SDS011;65989;51.686;5.138;2023-11-19T10:57:04;30.98;;;4.63;;
77061;SDS011;65989;51.686;5.138;2023-11-19T10:59:31;34.05;;;4.75;;
77061;SDS011;65989;51.686;5.138;2023-11-19T11:02:00;34.35;;;4.63;;
77061;SDS011;65989;51.686;5.138;2023-11-19T11:04:28;39.03;;;4.50;;
77061;SDS011;65989;51.686;5.138;2023-11-19T11:06:56;34.38;;;4.53;;
77061;SDS011;65989;51.686;5.138;2023-11-19T11:09:23;35.40;;;4.93;;
77061;SDS011;65989;51.686;5.138;2023-11-19T11:11:51;39.72;;;5.22;;
77061;SDS011;65989;51.686;5.138;2023-11-19T11:14:17;45.55;;;6.22;;
77061;SDS011;65989;51.686;5.138;2023-11-19T11:16:43;33.37;;;5.10;;
77061;SDS011;65989;51.686;5.138;2023-11-19T11:19:12;28.65;;;4.75;;
77061;SDS011;65989;51.686;5.138;2023-11-19T11:21:38;31.17;;;5.20;;
77061;SDS011;65989;51.686;5.138;2023-11-19T11:24:16;32.67;;;4.03;;
77061;SDS011;65989;51.686;5.138;2023-11-19T11:29:35;24.13;;;4.22;;
77061;SDS011;65989;51.686;5.138;2023-11-19T11:32:13;29.42;;;3.67;;
77061;SDS011;65989;51.686;5.138;2023-11-19T11:39:49;28.10;;;3.70;;
77061;SDS011;65989;51.686;5.138;2023-11-19T11:45:16;30.88;;;5.00;;
77061;SDS011;65989;51.686;5.138;2023-11-19T11:55:23;28.47;;;4.20;;
77061;SDS011;65989;51.686;5.138;2023-11-19T11:57:49;26.25;;;3.95;;
77061;SDS011;65989;51.686;5.138;2023-11-19T12:00:21;28.03;;;4.70;;
77061;SDS011;65989;51.686;5.138;2023-11-19T12:02:46;23.42;;;4.15;;
77061;SDS011;65989;51.686;5.138;2023-11-19T12:05:13;28.33;;;4.50;;
77061;SDS011;65989;51.686;5.138;2023-11-19T12:07:39;27.97;;;4.00;;
77061;SDS011;65989;51.686;5.138;2023-11-19T12:10:08;34.70;;;5.17;;
77061;SDS011;65989;51.686;5.138;2023-11-19T12:12:33;28.65;;;4.65;;
77061;SDS011;65989;51.686;5.138;2023-11-19T12:17:41;26.07;;;4.23;;
77061;SDS011;65989;51.686;5.138;2023-11-19T12:20:09;39.35;;;5.05;;
77061;SDS011;65989;51.686;5.138;2023-11-19T12:22:39;31.27;;;4.40;;
77061;SDS011;65989;51.686;5.138;2023-11-19T12:25:08;26.70;;;4.17;;
77061;SDS011;65989;51.686;5.138;2023-11-19T12:27:34;28.55;;;4.65;;
77061;SDS011;65989;51.686;5.138;2023-11-19T12:30:00;34.22;;;4.38;;
77061;SDS011;65989;51.686;5.138;2023-11-19T12:32:25;29.23;;;4.10;;
77061;SDS011;65989;51.686;5.138;2023-11-19T12:34:50;29.63;;;5.10;;
77061;SDS011;65989;51.686;5.138;2023-11-19T12:37:16;29.03;;;4.10;;
77061;SDS011;65989;51.686;5.138;2023-11-19T12:39:41;26.45;;;4.70;;
77061;SDS011;65989;51.686;5.138;2023-11-19T12:42:07;31.07;;;4.93;;
77061;SDS011;65989;51.686;5.138;2023-11-19T12:44:32;29.23;;;4.77;;
77061;SDS011;65989;51.686;5.138;2023-11-19T12:47:03;39.45;;;5.72;;
77061;SDS011;65989;51.686;5.138;2023-11-19T12:49:28;34.75;;;5.00;;
77061;SDS011;65989;51.686;5.138;2023-11-19T12:51:54;35.17;;;4.23;;
77061;SDS011;65989;51.686;5.138;2023-11-19T12:54:19;35.80;;;5.33;;
77061;SDS011;65989;51.686;5.138;2023-11-19T12:56:53;35.10;;;5.13;;
77061;SDS011;65989;51.686;5.138;2023-11-19T12:59:19;24.98;;;4.78;;
77061;SDS011;65989;51.686;5.138;2023-11-19T13:01:56;26.87;;;4.43;;
77061;SDS011;65989;51.686;5.138;2023-11-19T13:04:22;34.78;;;4.65;;
77061;SDS011;65989;51.686;5.138;2023-11-19T13:06:49;33.75;;;5.45;;
77061;SDS011;65989;51.686;5.138;2023-11-19T13:09:21;31.90;;;5.17;;
77061;SDS011;65989;51.686;5.138;2023-11-19T13:11:47;31.08;;;4.53;;
77061;SDS011;65989;51.686;5.138;2023-11-19T13:14:12;27.20;;;4.93;;
77061;SDS011;65989;51.686;5.138;2023-11-19T13:16:37;32.67;;;4.60;;
77061;SDS011;65989;51.686;5.138;2023-11-19T13:19:03;32.08;;;5.30;;
77061;SDS011;65989;51.686;5.138;2023-11-19T13:21:29;28.58;;;5.10;;
77061;SDS011;65989;51.686;5.138;2023-11-19T13:23:55;24.53;;;4.13;;
77061;SDS011;65989;51.686;5.138;2023-11-19T13:26:20;33.27;;;4.67;;
77061;SDS011;65989;51.686;5.138;2023-11-19T13:28:45;25.93;;;4.03;;
77061;SDS011;65989;51.686;5.138;2023-11-19T13:31:11;22.53;;;4.93;;
77061;SDS011;65989;51.686;5.138;2023-11-19T13:33:36;27.93;;;4.43;;
77061;SDS011;65989;51.686;5.138;2023-11-19T13:36:02;24.53;;;4.03;;
77061;SDS011;65989;51.686;5.138;2023-11-19T13:38:34;26.38;;;4.53;;
77061;SDS011;65989;51.686;5.138;2023-11-19T13:41:05;25.20;;;4.60;;
77061;SDS011;65989;51.686;5.138;2023-11-19T13:43:31;26.20;;;4.45;;
77061;SDS011;65989;51.686;5.138;2023-11-19T13:45:56;28.43;;;3.57;;
77061;SDS011;65989;51.686;5.138;2023-11-19T13:48:23;19.50;;;3.10;;
77061;SDS011;65989;51.686;5.138;2023-11-19T13:50:48;23.23;;;3.67;;
77061;SDS011;65989;51.686;5.138;2023-11-19T13:53:13;28.97;;;4.20;;
77061;SDS011;65989;51.686;5.138;2023-11-19T13:55:39;30.77;;;4.67;;
77061;SDS011;65989;51.686;5.138;2023-11-19T13:58:04;27.03;;;4.67;;
77061;SDS011;65989;51.686;5.138;2023-11-19T14:00:29;29.30;;;4.53;;
77061;SDS011;65989;51.686;5.138;2023-11-19T14:02:54;27.57;;;4.20;;
77061;SDS011;65989;51.686;5.138;2023-11-19T14:05:20;29.33;;;3.77;;
77061;SDS011;65989;51.686;5.138;2023-11-19T14:07:45;27.20;;;4.00;;
77061;SDS011;65989;51.686;5.138;2023-11-19T14:10:13;26.90;;;3.92;;
77061;SDS011;65989;51.686;5.138;2023-11-19T14:12:38;29.87;;;4.43;;
77061;SDS011;65989;51.686;5.138;2023-11-19T14:15:04;26.23;;;3.97;;
77061;SDS011;65989;51.686;5.138;2023-11-19T14:17:31;27.90;;;4.13;;
77061;SDS011;65989;51.686;5.138;2023-11-19T14:19:56;19.83;;;3.17;;
77061;SDS011;65989;51.686;5.138;2023-11-19T14:22:22;23.30;;;3.55;;
77061;SDS011;65989;51.686;5.138;2023-11-19T14:24:47;24.07;;;3.63;;
77061;SDS011;65989;51.686;5.138;2023-11-19T14:27:13;28.33;;;3.77;;
77061;SDS011;65989;51.686;5.138;2023-11-19T14:29:38;31.00;;;4.93;;
77061;SDS011;65989;51.686;5.138;2023-11-19T14:32:04;29.10;;;4.35;;
77061;SDS011;65989;51.686;5.138;2023-11-19T14:34:30;27.63;;;4.20;;
77061;SDS011;65989;51.686;5.138;2023-11-19T14:36:55;25.60;;;3.80;;
77061;SDS011;65989;51.686;5.138;2023-11-19T14:39:21;30.60;;;4.10;;
77061;SDS011;65989;51.686;5.138;2023-11-19T14:41:46;21.47;;;3.67;;
77061;SDS011;65989;51.686;5.138;2023-11-19T14:44:11;26.17;;;3.70;;
77061;SDS011;65989;51.686;5.138;2023-11-19T14:46:37;24.38;;;4.30;;
77061;SDS011;65989;51.686;5.138;2023-11-19T14:49:03;25.23;;;3.73;;
77061;SDS011;65989;51.686;5.138;2023-11-19T14:51:29;23.98;;;3.47;;